ワルシャワ の空港の天気 - METARとTAF

ワルシャワ・フレデリック・ショパン空港 ( EPWA / WAW ) - ポーランド ワルシャワ
飛行場実況気象(Metar)
観測時間02/05 21:00 CET (02/05 20:00 UTC)
風向・風速西 3m/s
視程10km以上
天気現象
なし
気温-6℃
湿度86%
気圧1037hPa
METAREPWA 052000Z 28005KT CAVOK M06/M08 Q1037 NOSIG
過去の天気等 Google飛行場航空写真 Wunderground天気予報

過去48時間のMETAR

飛行場予報(TAF)
発表時間: 2/05 18:30 CET (2/05 17:30 UTC)
予報対象時間: 5日19時 CET ~ 6日19時 CET
風向・風速北西 3m/s
視程10km以上
全天の8割程度の雲 雲底高度 1010m
6日2時 CET から 確率 40% で
視程4000m
天気現象もや
全天の8割程度の雲 雲底高度 240m
TAF EPWA 051730Z 0518/0618 31005KT 9999 BKN033
PROB40 0601/0608 4000 BR BKN008